Time;durP1;ratioP1;P1;durP2;ratioP2;P2;SDS_P1;SDS_P2;PMS_P1;PMS_P2;Temp;Humidity;BMP_temperature;BMP_pressure;BME280_temperature;BME280_humidity;BME280_pressure;Samples;Min_cycle;Max_cycle;Signal;HPM_P1;HPM_P2
2021/05/29 08:42:59;;;;;;;0.63;0.40;;;23.00;47.20;;;;;;5092474;27;20378;-71
2021/05/29 08:45:25;;;;;;;0.45;0.30;;;23.60;46.70;;;;;;5083005;28;20126;-71
2021/05/29 08:47:51;;;;;;;0.50;0.35;;;23.90;45.80;;;;;;5079704;28;20025;-70
2021/05/29 08:50:17;;;;;;;0.70;0.40;;;24.80;44.50;;;;;;5081312;28;20043;-70
2021/05/29 08:52:43;;;;;;;1.80;0.30;;;25.70;42.00;;;;;;5078158;28;20052;-71
2021/05/29 08:55:14;;;;;;;0.60;0.30;;;26.50;41.20;;;;;;5082121;28;20031;-70
2021/05/29 08:57:41;;;;;;;0.65;0.30;;;27.60;37.60;;;;;;5081747;28;20020;-71
2021/05/29 09:00:09;;;;;;;0.55;0.30;;;28.30;36.90;;;;;;5082750;28;20068;-70
2021/05/29 09:03:02;;;;;;;1.13;0.88;;;28.40;37.20;;;;;;5071514;28;20085;-70
2021/05/29 09:05:39;;;;;;;0.75;0.40;;;27.70;36.70;;;;;;5070040;28;20028;-70
2021/05/29 09:08:10;;;;;;;0.93;0.50;;;27.40;38.20;;;;;;5075554;28;20486;-70
2021/05/29 09:10:48;;;;;;;1.10;0.50;;;27.00;39.70;;;;;;5076561;28;20028;-70
2021/05/29 09:13:15;;;;;;;1.45;0.93;;;27.70;39.70;;;;;;5070790;28;20029;-69
2021/05/29 09:15:54;;;;;;;1.23;0.40;;;28.10;38.50;;;;;;5077689;28;20017;-69
2021/05/29 09:18:34;;;;;;;0.50;0.30;;;28.20;38.20;;;;;;5077211;28;20036;-69
2021/05/29 09:21:18;;;;;;;0.55;0.30;;;28.30;37.60;;;;;;5058733;28;20032;-69
2021/05/29 09:23:45;;;;;;;0.90;0.63;;;28.40;36.80;;;;;;5083017;28;20023;-69
2021/05/29 09:26:11;;;;;;;0.40;0.30;;;28.50;36.90;;;;;;5088844;28;20815;-68
2021/05/29 09:28:40;;;;;;;0.60;0.30;;;28.20;37.00;;;;;;5073587;28;20020;-69
2021/05/29 09:31:08;;;;;;;1.20;0.40;;;27.80;38.40;;;;;;5058108;28;20033;-67
2021/05/29 09:33:35;;;;;;;0.50;0.30;;;27.60;38.70;;;;;;5049673;28;20036;-68
2021/05/29 09:36:09;;;;;;;0.63;0.30;;;27.20;38.90;;;;;;5050886;28;20044;-78
2021/05/29 09:38:40;;;;;;;0.73;0.40;;;27.70;39.10;;;;;;5050579;28;20029;-81
2021/05/29 09:41:24;;;;;;;0.43;0.30;;;28.20;36.80;;;;;;5048575;28;20049;-81
2021/05/29 09:43:56;;;;;;;0.50;0.30;;;28.30;36.20;;;;;;5050992;28;20028;-81
2021/05/29 09:46:22;;;;;;;0.50;0.20;;;28.60;36.70;;;;;;5050947;28;20044;-81
2021/05/29 09:48:56;;;;;;;1.08;0.30;;;28.70;35.90;;;;;;5069949;28;20111;-81
2021/05/29 09:51:23;;;;;;;0.32;0.20;;;28.50;37.70;;;;;;5075735;28;20590;-81
2021/05/29 09:53:50;;;;;;;0.55;0.30;;;28.40;35.90;;;;;;5039361;28;20036;-79
2021/05/29 09:56:27;;;;;;;0.50;0.35;;;28.30;36.70;;;;;;5037224;28;20091;-82
2021/05/29 09:59:03;;;;;;;0.80;0.28;;;28.20;37.80;;;;;;5038402;28;20036;-79
2021/05/29 10:01:34;;;;;;;0.35;0.20;;;28.00;37.80;;;;;;5054189;28;20066;-83
2021/05/29 10:04:01;;;;;;;0.70;0.30;;;28.70;35.70;;;;;;5041942;28;20030;-79
2021/05/29 10:06:27;;;;;;;0.40;0.20;;;28.80;35.40;;;;;;5052705;28;20029;-80
2021/05/29 10:08:53;;;;;;;0.40;0.20;;;29.10;35.10;;;;;;5061301;28;20035;-81
2021/05/29 10:11:19;;;;;;;0.55;0.20;;;29.10;35.40;;;;;;5063342;28;20029;-77
2021/05/29 10:13:44;;;;;;;0.30;0.20;;;29.10;35.30;;;;;;5064619;28;20043;-77
2021/05/29 10:16:12;;;;;;;0.30;0.10;;;29.10;35.00;;;;;;5069487;28;20539;-86
2021/05/29 10:18:39;;;;;;;0.32;0.20;;;29.00;36.00;;;;;;5057227;28;20020;-83
2021/05/29 10:21:05;;;;;;;0.43;0.28;;;29.50;35.10;;;;;;5058807;28;20059;-79
2021/05/29 10:23:31;;;;;;;0.80;0.40;;;29.70;34.60;;;;;;5060755;28;20024;-77
2021/05/29 10:25:59;;;;;;;0.70;0.22;;;29.60;35.20;;;;;;5052443;28;20033;-77
2021/05/29 10:28:25;;;;;;;0.57;0.20;;;29.10;34.10;;;;;;5055445;28;20017;-76
2021/05/29 10:30:51;;;;;;;0.50;0.20;;;28.40;34.30;;;;;;5052837;28;20037;-77
2021/05/29 10:33:21;;;;;;;0.50;0.20;;;28.20;35.80;;;;;;5051780;28;20028;-77
2021/05/29 10:35:47;;;;;;;1.30;0.50;;;28.00;35.70;;;;;;5051238;28;20066;-78
2021/05/29 10:38:14;;;;;;;0.60;0.20;;;28.20;35.70;;;;;;5047543;28;20021;-79
2021/05/29 10:40:48;;;;;;;0.95;0.20;;;28.10;36.50;;;;;;5056473;28;20032;-78
2021/05/29 10:43:35;;;;;;;0.57;0.22;;;28.70;36.70;;;;;;5055864;28;20049;-79
2021/05/29 10:46:06;;;;;;;0.45;0.17;;;29.30;37.00;;;;;;5055435;28;20037;-78
2021/05/29 10:48:43;;;;;;;0.38;0.20;;;29.40;37.20;;;;;;5061866;28;20017;-77
2021/05/29 10:51:11;;;;;;;0.32;0.20;;;28.90;33.40;;;;;;5063053;28;20033;-78
2021/05/29 10:53:53;;;;;;;0.20;0.10;;;28.50;34.60;;;;;;5060857;28;20466;-78
2021/05/29 10:56:19;;;;;;;1.55;0.20;;;28.30;35.20;;;;;;5058366;28;20025;-78
2021/05/29 10:58:54;;;;;;;0.55;0.20;;;28.00;36.70;;;;;;5058201;28;20027;-78
2021/05/29 11:01:20;;;;;;;0.45;0.20;;;27.60;35.10;;;;;;5055388;28;20499;-77
2021/05/29 11:03:47;;;;;;;0.32;0.20;;;27.30;34.90;;;;;;5056206;28;20489;-78
2021/05/29 11:06:31;;;;;;;0.35;0.25;;;27.30;37.00;;;;;;5037089;28;20029;-78
2021/05/29 11:09:00;;;;;;;0.40;0.20;;;27.50;34.80;;;;;;5035991;28;20041;-78
2021/05/29 11:14:22;;;;;;;0.50;0.20;;;27.70;34.90;;;;;;5046267;28;20040;-79
2021/05/29 11:16:51;;;;;;;0.47;0.20;;;27.80;33.70;;;;;;5036451;28;20032;-78
2021/05/29 11:19:58;;;;;;;0.10;0.10;;;28.30;33.10;;;;;;5036144;28;20029;-79
2021/05/29 11:22:25;;;;;;;0.15;0.10;;;28.60;33.20;;;;;;5036324;28;20037;-79
2021/05/29 11:24:53;;;;;;;0.25;0.10;;;29.30;34.50;;;;;;5039976;28;20056;-79
2021/05/29 11:27:26;;;;;;;0.17;0.10;;;29.20;30.60;;;;;;5052006;28;20136;-79
2021/05/29 11:30:00;;;;;;;0.20;0.13;;;29.10;32.80;;;;;;5074959;28;20021;-83
2021/05/29 11:35:38;;;;;;;0.30;0.10;;;28.30;33.60;;;;;;5063144;28;20017;-78
2021/05/29 11:38:14;;;;;;;0.30;0.20;;;27.90;31.50;;;;;;5074983;28;20020;-77
2021/05/29 11:40:51;;;;;;;0.60;0.20;;;27.80;32.90;;;;;;5049626;28;20040;-75
2021/05/29 11:43:32;;;;;;;0.35;0.17;;;27.40;33.60;;;;;;5051094;28;20025;-79
2021/05/29 11:45:59;;;;;;;0.20;0.10;;;27.40;35.40;;;;;;5052278;28;20021;-80
2021/05/29 11:48:36;;;;;;;0.30;0.20;;;27.50;35.90;;;;;;5053009;28;20071;-77
2021/05/29 11:51:15;;;;;;;0.40;0.20;;;27.80;35.80;;;;;;5051565;28;20065;-77
2021/05/29 11:53:46;;;;;;;0.60;0.17;;;27.30;35.90;;;;;;5051460;28;20029;-77
2021/05/29 11:56:29;;;;;;;0.20;0.10;;;27.30;35.80;;;;;;5055743;28;20021;-77
2021/05/29 11:58:56;;;;;;;0.28;0.20;;;26.90;36.90;;;;;;5048875;28;20043;-78
2021/05/29 12:01:28;;;;;;;0.15;0.10;;;26.80;37.10;;;;;;5049762;28;20021;-77
2021/05/29 12:04:03;;;;;;;0.50;0.20;;;26.80;38.30;;;;;;5052647;28;20451;-77
2021/05/29 12:06:38;;;;;;;0.40;0.20;;;26.90;37.70;;;;;;5050755;28;20028;-77
2021/05/29 12:09:11;;;;;;;0.10;0.10;;;27.00;37.30;;;;;;5049019;28;20037;-78
2021/05/29 12:11:39;;;;;;;0.30;0.17;;;27.10;38.00;;;;;;5047813;28;20024;-77
2021/05/29 12:14:11;;;;;;;0.35;0.20;;;27.30;37.00;;;;;;5047078;28;20079;-77
2021/05/29 12:16:45;;;;;;;0.82;0.20;;;26.90;38.30;;;;;;5052488;28;20025;-78
2021/05/29 12:19:29;;;;;;;0.95;0.20;;;27.30;38.00;;;;;;5045384;28;20791;-78
2021/05/29 12:21:57;;;;;;;0.47;0.20;;;27.60;37.50;;;;;;5052964;28;20024;-77
2021/05/29 12:24:25;;;;;;;0.30;0.10;;;27.70;37.10;;;;;;5052962;28;20033;-77
2021/05/29 12:26:51;;;;;;;0.65;0.10;;;27.70;35.70;;;;;;5051963;28;20078;-77
2021/05/29 12:29:22;;;;;;;0.50;0.20;;;28.00;35.90;;;;;;5049187;28;20685;-78
2021/05/29 12:31:52;;;;;;;0.17;0.10;;;27.90;35.90;;;;;;5051345;28;20031;-77
2021/05/29 12:34:19;;;;;;;0.40;0.20;;;27.90;36.00;;;;;;5052342;28;20032;-77
2021/05/29 12:36:54;;;;;;;0.20;0.10;;;28.10;38.40;;;;;;5061205;28;20057;-77
2021/05/29 12:39:20;;;;;;;0.20;0.10;;;28.20;38.80;;;;;;5060046;28;20104;-77
2021/05/29 12:41:46;;;;;;;0.40;0.20;;;28.20;40.60;;;;;;5058678;28;20129;-77
2021/05/29 12:44:12;;;;;;;0.38;0.20;;;28.20;40.20;;;;;;5054328;28;20180;-77
2021/05/29 12:46:39;;;;;;;0.35;0.25;;;27.90;40.40;;;;;;5035994;28;20025;-78
2021/05/29 12:49:09;;;;;;;0.13;0.10;;;27.80;40.20;;;;;;5051381;28;20032;-77
2021/05/29 12:51:49;;;;;;;;;;;27.60;39.90;;;;;;5050548;28;20518;-79
2021/05/29 12:54:15;;;;;;;0.17;0.10;;;27.50;39.90;;;;;;5056435;28;20464;-77
2021/05/29 12:56:51;;;;;;;0.32;0.20;;;27.30;39.80;;;;;;5054364;28;20033;-77
2021/05/29 12:59:22;;;;;;;0.20;0.10;;;27.40;39.00;;;;;;5051863;28;20025;-78
2021/05/29 13:02:01;;;;;;;0.30;0.15;;;27.30;40.40;;;;;;5047269;28;20506;-77
2021/05/29 13:07:28;;;;;;;0.17;0.15;;;27.30;40.40;;;;;;5055458;28;20040;-77
2021/05/29 13:12:29;;;;;;;4.22;2.92;;;26.90;43.00;;;;;;5036394;28;20046;-77
2021/05/29 13:14:55;;;;;;;0.70;0.40;;;27.00;42.80;;;;;;5072155;28;20021;-77
2021/05/29 13:17:25;;;;;;;0.50;0.20;;;27.00;42.10;;;;;;5042184;28;20033;-77
2021/05/29 13:19:55;;;;;;;0.30;0.10;;;26.80;42.00;;;;;;5034117;28;20022;-78
2021/05/29 13:22:24;;;;;;;0.40;0.10;;;26.90;41.70;;;;;;5033742;28;20037;-78
2021/05/29 13:24:52;;;;;;;0.28;0.20;;;26.90;41.50;;;;;;5042075;28;20033;-77
2021/05/29 13:27:19;;;;;;;0.40;0.17;;;26.70;42.80;;;;;;5074021;28;20090;-77
2021/05/29 13:29:45;;;;;;;0.20;0.20;;;26.80;41.90;;;;;;5067127;28;20025;-78
2021/05/29 13:32:12;;;;;;;0.43;0.10;;;26.80;42.60;;;;;;5045026;28;20030;-78
2021/05/29 13:34:38;;;;;;;0.10;0.10;;;26.90;42.90;;;;;;5039745;28;20017;-78
2021/05/29 13:37:04;;;;;;;0.30;0.20;;;26.90;43.40;;;;;;5039007;28;20056;-77
2021/05/29 13:39:30;;;;;;;0.30;0.20;;;27.30;42.80;;;;;;5038310;28;20030;-78
2021/05/29 13:41:55;;;;;;;0.40;0.20;;;27.00;41.80;;;;;;5038251;28;20128;-77
2021/05/29 13:44:21;;;;;;;0.35;0.10;;;26.90;41.70;;;;;;5040901;28;20059;-78
2021/05/29 13:46:47;;;;;;;0.82;0.20;;;27.10;42.90;;;;;;5038317;28;20029;-78
2021/05/29 13:49:12;;;;;;;0.10;0.10;;;27.50;41.10;;;;;;5048241;28;20136;-77
2021/05/29 13:51:38;;;;;;;0.25;0.10;;;27.60;41.30;;;;;;5058065;28;20072;-77
2021/05/29 13:54:05;;;;;;;0.15;0.10;;;27.70;41.20;;;;;;5056859;28;20017;-78
2021/05/29 13:56:34;;;;;;;0.10;0.10;;;27.70;40.30;;;;;;5043491;28;20511;-78
2021/05/29 13:59:01;;;;;;;0.20;0.10;;;27.80;40.30;;;;;;5037667;28;20148;-77
2021/05/29 14:01:27;;;;;;;0.30;0.10;;;27.80;40.70;;;;;;5060970;28;20054;-78
2021/05/29 14:03:52;;;;;;;0.13;0.10;;;27.60;39.30;;;;;;5040251;28;20542;-77
2021/05/29 14:06:18;;;;;;;0.35;0.10;;;27.30;40.20;;;;;;5037802;28;20120;-77
2021/05/29 14:08:44;;;;;;;0.35;0.10;;;27.30;40.20;;;;;;5037913;28;20063;-77
2021/05/29 14:11:15;;;;;;;0.00;0.00;;;27.50;40.80;;;;;;5038263;28;20040;-77
2021/05/29 14:13:40;;;;;;;0.10;0.10;;;27.50;41.60;;;;;;5057821;28;20044;-80
2021/05/29 14:16:06;;;;;;;0.50;0.10;;;27.40;39.50;;;;;;5056579;28;20029;-78
2021/05/29 14:18:32;;;;;;;0.30;0.10;;;27.50;39.90;;;;;;5052766;28;20017;-78
2021/05/29 14:20:58;;;;;;;0.22;0.10;;;27.30;39.50;;;;;;5039523;28;20542;-77
2021/05/29 14:23:23;;;;;;;0.30;0.10;;;27.40;40.90;;;;;;5036035;28;20029;-78
2021/05/29 14:25:49;;;;;;;0.40;0.10;;;27.30;40.90;;;;;;5036163;28;20555;-77
2021/05/29 14:28:15;;;;;;;0.17;0.10;;;27.20;41.20;;;;;;5063326;28;20016;-77
2021/05/29 14:30:40;;;;;;;0.77;0.10;;;27.10;41.80;;;;;;5068639;28;20028;-77
2021/05/29 14:33:06;;;;;;;0.20;0.10;;;27.10;42.10;;;;;;5063001;28;20031;-77
2021/05/29 14:35:33;;;;;;;0.32;0.17;;;27.20;41.90;;;;;;5061660;28;20021;-77
2021/05/29 14:37:58;;;;;;;0.15;0.10;;;27.30;41.50;;;;;;5057320;28;20479;-78
2021/05/29 14:40:24;;;;;;;0.20;0.10;;;27.20;40.90;;;;;;5046808;28;20094;-78
2021/05/29 14:42:50;;;;;;;0.10;0.05;;;27.30;41.20;;;;;;5059370;28;20060;-78
2021/05/29 14:45:16;;;;;;;0.30;0.10;;;27.30;41.20;;;;;;5060104;28;20025;-78
2021/05/29 14:47:42;;;;;;;0.20;0.10;;;27.30;40.50;;;;;;5069337;28;20040;-77
2021/05/29 14:50:08;;;;;;;0.22;0.13;;;27.20;40.90;;;;;;5074796;28;20089;-78
2021/05/29 14:52:34;;;;;;;0.30;0.20;;;27.10;41.10;;;;;;5062704;28;20032;-78
2021/05/29 14:55:00;;;;;;;0.10;0.10;;;26.70;41.00;;;;;;5063358;28;20111;-81
2021/05/29 14:57:27;;;;;;;0.20;0.10;;;26.60;42.50;;;;;;5063302;28;20021;-81
2021/05/29 14:59:53;;;;;;;0.10;0.10;;;26.60;42.80;;;;;;5060017;28;20037;-81
2021/05/29 15:02:19;;;;;;;0.10;0.10;;;26.50;43.30;;;;;;5066128;28;20025;-82
2021/05/29 15:04:55;;;;;;;0.20;0.10;;;26.30;41.90;;;;;;5066864;28;20461;-83
2021/05/29 15:07:21;;;;;;;0.00;0.00;;;26.20;42.10;;;;;;5065061;28;20079;-81
2021/05/29 15:09:46;;;;;;;0.20;0.10;;;25.80;43.80;;;;;;5063061;28;20033;-82
2021/05/29 15:12:12;;;;;;;0.15;0.10;;;25.80;45.10;;;;;;5047842;28;20033;-81
2021/05/29 15:14:38;;;;;;;0.40;0.20;;;25.90;42.70;;;;;;5049644;28;20025;-81
2021/05/29 15:17:03;;;;;;;0.20;0.10;;;25.90;41.40;;;;;;5065039;28;20100;-82
2021/05/29 15:19:29;;;;;;;0.30;0.10;;;25.90;43.20;;;;;;5055673;28;20041;-81
2021/05/29 15:21:56;;;;;;;0.20;0.10;;;25.90;42.40;;;;;;5042418;28;20024;-81
2021/05/29 15:24:22;;;;;;;0.50;0.20;;;25.90;41.70;;;;;;5044854;28;20021;-81
2021/05/29 15:26:55;;;;;;;0.57;0.20;;;26.00;42.90;;;;;;5045532;28;20025;-81
2021/05/29 15:29:21;;;;;;;0.20;0.13;;;26.00;42.50;;;;;;5046171;28;20032;-81
2021/05/29 15:31:47;;;;;;;0.22;0.10;;;26.10;42.00;;;;;;5042883;28;20036;-81
2021/05/29 15:34:15;;;;;;;0.40;0.20;;;26.20;40.30;;;;;;5043867;28;20021;-81
2021/05/29 15:36:41;;;;;;;0.20;0.13;;;26.10;42.30;;;;;;5056959;28;20324;-81
2021/05/29 15:39:07;;;;;;;0.50;0.20;;;26.20;42.60;;;;;;5048179;28;20053;-81
2021/05/29 15:41:34;;;;;;;0.65;0.10;;;26.30;43.90;;;;;;5048274;28;20789;-82
2021/05/29 15:44:00;;;;;;;0.40;0.20;;;26.20;44.40;;;;;;5062864;28;20037;-81
2021/05/29 15:46:27;;;;;;;1.08;0.15;;;26.10;44.40;;;;;;5061762;28;20582;-82
2021/05/29 15:48:53;;;;;;;0.85;0.20;;;26.20;43.20;;;;;;5063748;28;20038;-81
2021/05/29 15:51:19;;;;;;;0.70;0.22;;;25.80;43.60;;;;;;5065497;28;20495;-81
2021/05/29 15:53:44;;;;;;;0.63;0.30;;;25.60;44.70;;;;;;5064316;28;20025;-82
2021/05/29 15:56:13;;;;;;;0.57;0.20;;;25.60;45.50;;;;;;5063172;28;20426;-81
2021/05/29 15:58:40;;;;;;;0.32;0.20;;;25.20;45.90;;;;;;5065023;28;20052;-81
2021/05/29 16:01:07;;;;;;;0.10;0.10;;;25.00;46.10;;;;;;5061752;28;20024;-81
2021/05/29 16:03:33;;;;;;;0.50;0.20;;;24.90;47.20;;;;;;5064854;28;20490;-81
2021/05/29 16:06:00;;;;;;;0.35;0.20;;;24.90;46.40;;;;;;5062314;28;20021;-81
2021/05/29 16:08:28;;;;;;;0.25;0.20;;;25.00;46.40;;;;;;5055060;28;20029;-81
2021/05/29 16:10:54;;;;;;;0.30;0.20;;;25.20;46.70;;;;;;5055967;28;20028;-82
2021/05/29 16:13:20;;;;;;;0.88;0.30;;;25.20;46.30;;;;;;5061165;28;20365;-83
2021/05/29 16:15:46;;;;;;;1.55;0.30;;;25.00;47.40;;;;;;5068938;28;20012;-82
2021/05/29 16:18:12;;;;;;;0.35;0.20;;;25.00;47.60;;;;;;5045521;28;20024;-77
2021/05/29 16:20:38;;;;;;;0.75;0.32;;;24.60;47.80;;;;;;5043769;28;20025;-80
2021/05/29 16:23:04;;;;;;;0.43;0.30;;;24.50;48.20;;;;;;5042640;28;20464;-82
2021/05/29 16:25:30;;;;;;;0.38;0.20;;;24.60;48.30;;;;;;5040858;28;20228;-77
2021/05/29 16:27:56;;;;;;;0.68;0.30;;;24.50;48.50;;;;;;5053593;28;20179;-77
2021/05/29 16:30:22;;;;;;;0.40;0.20;;;24.40;48.70;;;;;;5051111;28;20025;-79
2021/05/29 16:33:01;;;;;;;0.40;0.20;;;24.20;48.00;;;;;;5063918;28;20035;-79
2021/05/29 16:35:32;;;;;;;0.50;0.20;;;24.10;48.60;;;;;;5054413;28;20023;-78
2021/05/29 16:37:58;;;;;;;0.40;0.20;;;24.10;48.30;;;;;;5043309;28;20025;-78
2021/05/29 16:40:24;;;;;;;0.28;0.20;;;24.10;49.00;;;;;;5044233;28;20051;-82
2021/05/29 16:42:51;;;;;;;0.47;0.20;;;23.90;49.50;;;;;;5044574;28;20084;-80
2021/05/29 16:45:17;;;;;;;0.47;0.30;;;24.20;48.50;;;;;;5044786;28;20056;-84
2021/05/29 16:47:43;;;;;;;0.60;0.38;;;24.10;48.50;;;;;;5043251;28;20108;-82
2021/05/29 16:50:10;;;;;;;0.43;0.30;;;24.10;48.10;;;;;;5043702;28;20469;-78
2021/05/29 16:52:36;;;;;;;0.57;0.30;;;23.90;48.80;;;;;;5056668;28;20082;-79
2021/05/29 16:55:03;;;;;;;0.38;0.30;;;23.80;50.10;;;;;;5053050;28;20017;-79
2021/05/29 16:57:29;;;;;;;0.77;0.38;;;23.80;49.80;;;;;;5051441;28;20034;-78
2021/05/29 16:59:55;;;;;;;0.35;0.20;;;23.60;50.40;;;;;;5051862;28;20032;-77
2021/05/29 17:02:22;;;;;;;0.68;0.38;;;23.40;51.30;;;;;;5050845;28;20507;-83
2021/05/29 17:04:49;;;;;;;0.30;0.20;;;23.40;51.30;;;;;;5045332;28;20029;-82
2021/05/29 17:07:15;;;;;;;0.30;0.20;;;23.10;51.90;;;;;;5053285;28;20036;-78
2021/05/29 17:09:42;;;;;;;0.30;0.20;;;23.10;52.00;;;;;;5050452;28;20029;-80
2021/05/29 17:12:11;;;;;;;0.30;0.20;;;23.00;51.60;;;;;;5048939;28;20032;-82
2021/05/29 17:14:38;;;;;;;0.55;0.30;;;22.90;52.00;;;;;;5043852;28;20025;-82
2021/05/29 17:17:03;;;;;;;0.55;0.20;;;22.80;52.20;;;;;;5053655;28;20052;-81
2021/05/29 17:19:29;;;;;;;0.30;0.20;;;22.80;52.70;;;;;;5044907;28;20021;-80
2021/05/29 17:21:55;;;;;;;0.40;0.20;;;22.60;52.60;;;;;;5049267;28;20033;-79
2021/05/29 17:24:21;;;;;;;0.30;0.20;;;22.50;52.90;;;;;;5059514;28;20025;-80
2021/05/29 17:26:47;;;;;;;0.30;0.20;;;22.50;52.40;;;;;;5053248;28;20079;-81
2021/05/29 17:29:12;;;;;;;0.50;0.30;;;22.50;53.50;;;;;;5052867;28;20185;-79
2021/05/29 17:31:38;;;;;;;0.45;0.20;;;22.30;52.90;;;;;;5059836;28;20053;-80
2021/05/29 17:34:05;;;;;;;0.50;0.20;;;22.30;53.00;;;;;;5052799;28;20029;-87
2021/05/29 17:36:31;;;;;;;0.30;0.20;;;22.30;53.40;;;;;;5054806;28;20025;-82
2021/05/29 17:38:56;;;;;;;0.45;0.30;;;22.20;54.20;;;;;;5055064;28;20025;-83
2021/05/29 17:41:23;;;;;;;0.45;0.20;;;22.30;53.90;;;;;;5055673;28;20052;-84
2021/05/29 17:43:49;;;;;;;0.38;0.20;;;22.20;54.30;;;;;;5050491;28;20400;-82
2021/05/29 17:46:15;;;;;;;0.85;0.30;;;22.00;54.70;;;;;;5054118;28;20116;-84
2021/05/29 17:48:41;;;;;;;0.70;0.30;;;22.00;55.00;;;;;;5053173;28;20109;-86
2021/05/29 17:51:07;;;;;;;0.28;0.20;;;22.10;54.50;;;;;;5055762;28;20037;-81
2021/05/29 17:53:33;;;;;;;0.28;0.20;;;22.00;54.70;;;;;;5053947;28;20026;-83
2021/05/29 17:55:59;;;;;;;0.52;0.20;;;21.80;55.00;;;;;;5053040;28;20025;-81
2021/05/29 18:01:09;;;;;;;0.98;0.20;;;21.80;55.40;;;;;;5054132;28;20377;-78
2021/05/29 18:03:36;;;;;;;0.35;0.20;;;21.60;55.70;;;;;;5037813;28;20490;-78
2021/05/29 18:06:05;;;;;;;0.50;0.30;;;21.70;55.60;;;;;;5051178;28;20443;-79
2021/05/29 18:08:31;;;;;;;0.85;0.30;;;21.60;55.90;;;;;;5049269;28;22291;-77
2021/05/29 18:10:56;;;;;;;0.40;0.20;;;21.60;56.00;;;;;;5043114;28;20030;-79
2021/05/29 18:13:23;;;;;;;0.70;0.30;;;21.50;55.70;;;;;;5052451;28;20029;-79
2021/05/29 18:15:48;;;;;;;0.55;0.30;;;21.50;55.60;;;;;;5045111;28;20410;-81
2021/05/29 18:18:14;;;;;;;0.50;0.30;;;21.40;55.50;;;;;;5053541;28;20025;-78
2021/05/29 18:20:40;;;;;;;0.75;0.30;;;21.40;55.80;;;;;;5043036;28;20025;-78
2021/05/29 18:23:06;;;;;;;0.68;0.30;;;21.40;55.80;;;;;;5053271;28;20100;-77
2021/05/29 18:25:34;;;;;;;0.40;0.30;;;21.30;55.60;;;;;;5046611;28;20040;-81
2021/05/29 18:28:00;;;;;;;0.75;0.40;;;21.30;56.10;;;;;;5048927;28;20028;-82
2021/05/29 18:30:28;;;;;;;0.57;0.30;;;21.30;55.30;;;;;;5051231;28;20031;-80
2021/05/29 18:32:54;;;;;;;0.68;0.32;;;21.40;55.50;;;;;;5042891;28;20034;-79
2021/05/29 18:35:20;;;;;;;0.50;0.30;;;21.40;55.40;;;;;;5047574;28;20086;-79
2021/05/29 18:40:17;;;;;;;0.47;0.30;;;21.30;55.30;;;;;;5049829;28;20936;-77
2021/05/29 18:42:43;;;;;;;0.90;0.30;;;21.30;55.40;;;;;;5047712;28;20040;-79
2021/05/29 18:45:09;;;;;;;0.38;0.22;;;21.30;55.70;;;;;;5047495;28;20033;-79
2021/05/29 18:47:36;;;;;;;1.02;0.30;;;21.20;55.70;;;;;;5053491;28;20065;-78
2021/05/29 18:50:02;;;;;;;0.60;0.40;;;21.30;55.50;;;;;;5054472;28;20028;-80
2021/05/29 18:52:31;;;;;;;0.45;0.20;;;21.20;55.80;;;;;;5042579;28;20127;-79
2021/05/29 18:54:57;;;;;;;0.60;0.30;;;21.10;55.80;;;;;;5049137;28;20174;-78
2021/05/29 18:57:23;;;;;;;0.85;0.30;;;21.10;55.70;;;;;;5042843;28;20100;-79
2021/05/29 19:02:30;;;;;;;0.45;0.30;;;21.00;55.90;;;;;;5046232;28;20226;-78
2021/05/29 19:09:59;;;;;;;0.40;0.30;;;20.80;56.70;;;;;;5044900;28;20532;-80
2021/05/29 19:12:25;;;;;;;0.65;0.30;;;20.70;56.50;;;;;;5040641;28;20029;-79
2021/05/29 19:15:06;;;;;;;0.30;0.20;;;20.70;57.30;;;;;;5039268;28;20105;-80
2021/05/29 19:17:38;;;;;;;1.00;0.30;;;20.60;57.50;;;;;;5039526;28;20029;-85
2021/05/29 19:20:06;;;;;;;0.50;0.22;;;20.50;57.50;;;;;;5037451;28;20021;-83
2021/05/29 19:28:11;;;;;;;0.63;0.40;;;20.60;57.70;;;;;;5041242;28;20047;-79
2021/05/29 19:30:37;;;;;;;0.60;0.25;;;20.50;58.80;;;;;;5052860;28;20107;-77
2021/05/29 19:41:22;;;;;;;0.77;0.40;;;20.10;60.20;;;;;;5037568;28;20526;-87
2021/05/29 19:46:27;;;;;;;0.55;0.35;;;19.90;61.00;;;;;;5033450;28;20036;-85
2021/05/29 20:13:31;;;;;;;0.68;0.30;;;19.80;62.10;;;;;;5050874;28;20044;-84
2021/05/29 20:24:38;;;;;;;0.55;0.38;;;19.30;64.20;;;;;;5041848;28;20047;-84
2021/05/29 20:27:05;;;;;;;0.75;0.30;;;19.30;64.00;;;;;;5051294;28;20486;-87
2021/05/29 20:29:33;;;;;;;0.60;0.20;;;19.40;63.80;;;;;;5039412;28;21055;-86
2021/05/29 20:31:59;;;;;;;0.50;0.28;;;19.40;63.90;;;;;;5051101;28;20021;-87
2021/05/29 20:36:51;;;;;;;0.55;0.30;;;19.30;64.20;;;;;;5042374;28;20025;-87
2021/05/29 20:39:36;;;;;;;1.38;0.20;;;19.30;64.40;;;;;;5038984;28;20021;-87
2021/05/29 20:42:02;;;;;;;1.35;0.25;;;19.30;64.70;;;;;;5045975;28;20889;-87
2021/05/29 20:44:30;;;;;;;0.63;0.30;;;19.30;64.60;;;;;;5042451;28;20193;-87
2021/05/29 20:46:57;;;;;;;0.20;0.15;;;19.30;64.60;;;;;;5038566;28;20025;-87
2021/05/29 20:49:23;;;;;;;0.40;0.30;;;19.30;64.90;;;;;;5043291;28;20025;-89
2021/05/29 20:51:49;;;;;;;0.50;0.30;;;19.40;64.90;;;;;;5037166;28;20029;-88
2021/05/29 20:54:15;;;;;;;0.43;0.30;;;19.40;64.90;;;;;;5037969;28;20026;-87
2021/05/29 20:56:43;;;;;;;0.40;0.30;;;19.40;65.00;;;;;;5036716;28;20026;-87
2021/05/29 20:59:10;;;;;;;1.40;0.30;;;19.40;65.40;;;;;;5037275;28;20105;-88
2021/05/29 21:01:38;;;;;;;0.80;0.40;;;19.40;65.30;;;;;;5034566;28;20033;-87
2021/05/29 21:04:05;;;;;;;0.50;0.32;;;19.50;65.40;;;;;;5041772;28;20067;-87
2021/05/29 21:06:31;;;;;;;0.63;0.40;;;19.40;65.50;;;;;;5042413;28;20083;-87
2021/05/29 21:08:57;;;;;;;0.70;0.35;;;19.50;65.30;;;;;;5035253;28;20029;-86
2021/05/29 21:11:27;;;;;;;0.50;0.38;;;19.40;65.80;;;;;;5035915;28;20380;-85
2021/05/29 21:14:08;;;;;;;0.60;0.40;;;19.50;65.50;;;;;;5039885;28;20423;-84
2021/05/29 21:16:45;;;;;;;0.40;0.30;;;19.40;65.80;;;;;;5041234;28;20025;-85
2021/05/29 21:22:15;;;;;;;0.77;0.40;;;19.40;65.90;;;;;;5058946;28;20097;-87
2021/05/29 21:24:41;;;;;;;0.60;0.40;;;19.40;66.20;;;;;;5057811;28;20095;-86
2021/05/29 21:27:07;;;;;;;0.75;0.45;;;19.40;66.40;;;;;;5066786;28;20075;-86
2021/05/29 21:29:33;;;;;;;0.90;0.50;;;19.30;66.30;;;;;;5062676;28;20127;-86
2021/05/29 21:31:59;;;;;;;0.80;0.50;;;19.30;66.30;;;;;;5057050;28;20032;-86
2021/05/29 21:34:24;;;;;;;0.80;0.60;;;19.30;66.30;;;;;;5054579;28;20467;-86
2021/05/29 21:36:53;;;;;;;0.65;0.35;;;19.30;66.70;;;;;;5054687;28;20025;-85
2021/05/29 21:39:18;;;;;;;0.70;0.50;;;19.40;66.50;;;;;;5050445;28;20056;-85
2021/05/29 21:41:44;;;;;;;0.82;0.50;;;19.30;66.60;;;;;;5064358;28;20076;-86
2021/05/29 21:44:13;;;;;;;0.68;0.43;;;19.30;66.90;;;;;;5061225;28;20049;-87
2021/05/29 21:49:23;;;;;;;0.77;0.50;;;19.30;67.20;;;;;;5062143;28;20044;-86
2021/05/29 21:51:51;;;;;;;0.82;0.40;;;19.20;67.70;;;;;;5063010;28;20036;-86
2021/05/29 21:54:18;;;;;;;0.60;0.40;;;19.10;68.00;;;;;;5058970;28;20021;-86
2021/05/29 21:56:44;;;;;;;0.90;0.50;;;19.00;68.30;;;;;;5040683;28;20056;-87
2021/05/29 21:59:13;;;;;;;0.98;0.50;;;19.00;68.70;;;;;;5038089;28;20494;-85
2021/05/29 22:01:39;;;;;;;1.67;0.60;;;18.90;68.90;;;;;;5038657;28;20578;-86
2021/05/29 22:04:06;;;;;;;0.70;0.50;;;18.80;69.10;;;;;;5038258;28;20044;-86
2021/05/29 22:06:32;;;;;;;0.70;0.50;;;18.90;69.10;;;;;;5039069;28;20040;-85
2021/05/29 22:09:06;;;;;;;0.60;0.40;;;18.90;68.90;;;;;;5044357;28;20025;-86
2021/05/29 22:12:01;;;;;;;0.93;0.63;;;18.90;68.60;;;;;;5056859;28;20038;-85
2021/05/29 22:19:56;;;;;;;0.75;0.50;;;19.00;68.90;;;;;;5055834;28;20024;-85
2021/05/29 22:30:36;;;;;;;0.63;0.43;;;18.80;69.40;;;;;;5038391;28;20189;-85
2021/05/29 22:33:02;;;;;;;1.55;0.60;;;18.90;69.10;;;;;;5056087;28;20653;-85
2021/05/29 22:35:28;;;;;;;0.75;0.50;;;18.80;69.50;;;;;;5046477;28;20128;-86
2021/05/29 22:37:53;;;;;;;1.17;0.60;;;18.80;69.30;;;;;;5037387;28;20048;-86
2021/05/29 22:40:19;;;;;;;0.98;0.60;;;18.80;68.90;;;;;;5038216;28;20018;-86
2021/05/29 22:42:45;;;;;;;0.85;0.63;;;18.80;68.90;;;;;;5037349;28;20472;-86
2021/05/29 22:45:12;;;;;;;0.70;0.50;;;18.80;68.80;;;;;;5036898;28;20086;-85
2021/05/29 22:47:37;;;;;;;1.48;0.50;;;18.80;68.20;;;;;;5051612;28;20025;-86
2021/05/29 22:50:05;;;;;;;0.90;0.50;;;18.80;68.00;;;;;;5037231;28;20056;-86
2021/05/29 22:52:31;;;;;;;0.90;0.60;;;18.90;67.20;;;;;;5038107;28;20026;-85
2021/05/29 22:54:57;;;;;;;0.90;0.60;;;19.00;66.90;;;;;;5043160;28;20032;-86
2021/05/29 22:57:22;;;;;;;1.10;0.60;;;19.00;66.90;;;;;;5048662;28;20037;-86
2021/05/29 22:59:48;;;;;;;0.68;0.50;;;19.00;67.10;;;;;;5036907;28;20167;-86
2021/05/29 23:02:14;;;;;;;0.57;0.40;;;19.00;67.00;;;;;;5054226;28;20029;-85
2021/05/29 23:04:40;;;;;;;0.57;0.40;;;19.00;66.90;;;;;;5052020;28;20037;-85
2021/05/29 23:07:05;;;;;;;0.77;0.50;;;18.90;67.00;;;;;;5037023;28;20030;-85
2021/05/29 23:09:31;;;;;;;0.80;0.50;;;18.80;67.70;;;;;;5037625;28;20075;-86
2021/05/29 23:11:57;;;;;;;1.10;0.60;;;18.80;67.60;;;;;;5036829;28;20069;-85